sensor_id;sensor_type;location;lat;lon;timestamp;P1;durP1;ratioP1;P2;durP2;ratioP2
75209;SDS011;63796;53.136;14.882;2023-02-01T00:02:26;10.10;;;2.00;;
75209;SDS011;63796;53.136;14.882;2023-02-01T00:04:54;15.60;;;1.80;;
75209;SDS011;63796;53.136;14.882;2023-02-01T00:07:21;9.80;;;1.70;;
75209;SDS011;63796;53.136;14.882;2023-02-01T00:09:48;13.20;;;1.60;;
75209;SDS011;63796;53.136;14.882;2023-02-01T00:12:15;8.90;;;1.50;;
75209;SDS011;63796;53.136;14.882;2023-02-01T00:14:42;8.20;;;2.20;;
75209;SDS011;63796;53.136;14.882;2023-02-01T00:17:09;18.20;;;2.30;;
75209;SDS011;63796;53.136;14.882;2023-02-01T00:19:36;15.10;;;1.70;;
75209;SDS011;63796;53.136;14.882;2023-02-01T00:22:03;15.80;;;2.90;;
75209;SDS011;63796;53.136;14.882;2023-02-01T00:24:30;14.60;;;1.90;;
75209;SDS011;63796;53.136;14.882;2023-02-01T00:26:57;21.00;;;2.90;;
75209;SDS011;63796;53.136;14.882;2023-02-01T00:29:25;10.30;;;1.90;;
75209;SDS011;63796;53.136;14.882;2023-02-01T00:31:52;21.40;;;2.20;;
75209;SDS011;63796;53.136;14.882;2023-02-01T00:34:20;13.30;;;2.80;;
75209;SDS011;63796;53.136;14.882;2023-02-01T00:36:48;11.20;;;1.70;;
75209;SDS011;63796;53.136;14.882;2023-02-01T00:39:15;6.50;;;1.30;;
75209;SDS011;63796;53.136;14.882;2023-02-01T00:41:43;16.40;;;2.30;;
75209;SDS011;63796;53.136;14.882;2023-02-01T00:44:10;9.30;;;1.60;;
75209;SDS011;63796;53.136;14.882;2023-02-01T00:46:37;7.70;;;2.00;;
75209;SDS011;63796;53.136;14.882;2023-02-01T00:49:05;18.60;;;2.50;;
75209;SDS011;63796;53.136;14.882;2023-02-01T00:51:34;13.00;;;2.00;;
75209;SDS011;63796;53.136;14.882;2023-02-01T00:54:01;18.90;;;2.00;;
75209;SDS011;63796;53.136;14.882;2023-02-01T00:56:30;7.50;;;1.60;;
75209;SDS011;63796;53.136;14.882;2023-02-01T00:58:58;10.30;;;1.60;;
75209;SDS011;63796;53.136;14.882;2023-02-01T01:01:26;17.90;;;2.10;;
75209;SDS011;63796;53.136;14.882;2023-02-01T01:03:56;13.90;;;1.60;;
75209;SDS011;63796;53.136;14.882;2023-02-01T01:06:28;14.60;;;1.90;;
75209;SDS011;63796;53.136;14.882;2023-02-01T01:08:58;12.40;;;1.70;;
75209;SDS011;63796;53.136;14.882;2023-02-01T01:11:28;13.50;;;1.60;;
75209;SDS011;63796;53.136;14.882;2023-02-01T01:13:56;16.20;;;1.30;;
75209;SDS011;63796;53.136;14.882;2023-02-01T01:16:25;9.10;;;1.00;;
75209;SDS011;63796;53.136;14.882;2023-02-01T01:18:53;11.90;;;2.10;;
75209;SDS011;63796;53.136;14.882;2023-02-01T01:21:23;14.20;;;2.40;;
75209;SDS011;63796;53.136;14.882;2023-02-01T01:23:51;13.70;;;2.40;;
75209;SDS011;63796;53.136;14.882;2023-02-01T01:26:24;16.10;;;1.80;;
75209;SDS011;63796;53.136;14.882;2023-02-01T01:28:52;18.00;;;3.70;;
75209;SDS011;63796;53.136;14.882;2023-02-01T01:31:21;17.00;;;2.10;;
75209;SDS011;63796;53.136;14.882;2023-02-01T01:33:51;10.60;;;1.30;;
75209;SDS011;63796;53.136;14.882;2023-02-01T01:36:19;14.40;;;1.70;;
75209;SDS011;63796;53.136;14.882;2023-02-01T01:38:47;5.40;;;1.10;;
75209;SDS011;63796;53.136;14.882;2023-02-01T01:41:20;16.20;;;1.90;;
75209;SDS011;63796;53.136;14.882;2023-02-01T01:44:05;14.90;;;1.70;;
75209;SDS011;63796;53.136;14.882;2023-02-01T01:46:36;12.10;;;1.60;;
75209;SDS011;63796;53.136;14.882;2023-02-01T01:51:44;14.70;;;2.00;;
75209;SDS011;63796;53.136;14.882;2023-02-01T01:54:46;13.30;;;1.50;;
75209;SDS011;63796;53.136;14.882;2023-02-01T01:57:17;17.60;;;2.40;;
75209;SDS011;63796;53.136;14.882;2023-02-01T02:00:00;15.90;;;2.70;;
75209;SDS011;63796;53.136;14.882;2023-02-01T02:02:28;16.40;;;2.00;;
75209;SDS011;63796;53.136;14.882;2023-02-01T02:04:55;10.60;;;1.80;;
75209;SDS011;63796;53.136;14.882;2023-02-01T02:07:26;12.60;;;1.70;;
75209;SDS011;63796;53.136;14.882;2023-02-01T02:09:54;13.30;;;1.50;;
75209;SDS011;63796;53.136;14.882;2023-02-01T02:12:27;18.10;;;1.70;;
75209;SDS011;63796;53.136;14.882;2023-02-01T02:14:55;14.50;;;2.30;;
75209;SDS011;63796;53.136;14.882;2023-02-01T02:17:48;16.50;;;2.40;;
75209;SDS011;63796;53.136;14.882;2023-02-01T02:20:50;17.40;;;1.90;;
75209;SDS011;63796;53.136;14.882;2023-02-01T02:23:47;15.00;;;2.10;;
75209;SDS011;63796;53.136;14.882;2023-02-01T02:32:54;9.50;;;1.50;;
75209;SDS011;63796;53.136;14.882;2023-02-01T02:35:42;10.90;;;1.30;;
75209;SDS011;63796;53.136;14.882;2023-02-01T02:38:56;8.30;;;1.00;;
75209;SDS011;63796;53.136;14.882;2023-02-01T02:41:29;13.20;;;1.10;;
75209;SDS011;63796;53.136;14.882;2023-02-01T02:50:27;15.70;;;1.20;;
75209;SDS011;63796;53.136;14.882;2023-02-01T02:53:27;11.70;;;1.10;;
75209;SDS011;63796;53.136;14.882;2023-02-01T02:56:18;9.60;;;0.80;;
75209;SDS011;63796;53.136;14.882;2023-02-01T02:59:07;11.30;;;1.70;;
75209;SDS011;63796;53.136;14.882;2023-02-01T03:01:54;11.50;;;2.00;;
75209;SDS011;63796;53.136;14.882;2023-02-01T03:04:40;6.90;;;1.00;;
75209;SDS011;63796;53.136;14.882;2023-02-01T03:13:25;8.90;;;0.80;;
75209;SDS011;63796;53.136;14.882;2023-02-01T03:16:10;7.90;;;0.90;;
75209;SDS011;63796;53.136;14.882;2023-02-01T03:18:54;10.50;;;1.00;;
75209;SDS011;63796;53.136;14.882;2023-02-01T03:24:03;9.80;;;1.80;;
75209;SDS011;63796;53.136;14.882;2023-02-01T03:26:36;12.90;;;1.40;;
75209;SDS011;63796;53.136;14.882;2023-02-01T03:29:16;9.80;;;0.90;;
75209;SDS011;63796;53.136;14.882;2023-02-01T03:31:44;9.30;;;0.90;;
75209;SDS011;63796;53.136;14.882;2023-02-01T03:34:12;10.60;;;1.40;;
75209;SDS011;63796;53.136;14.882;2023-02-01T03:36:46;5.50;;;0.60;;
75209;SDS011;63796;53.136;14.882;2023-02-01T03:41:57;6.50;;;1.00;;
75209;SDS011;63796;53.136;14.882;2023-02-01T03:44:35;5.00;;;0.90;;
75209;SDS011;63796;53.136;14.882;2023-02-01T03:47:12;9.30;;;1.20;;
75209;SDS011;63796;53.136;14.882;2023-02-01T03:49:43;9.40;;;1.50;;
75209;SDS011;63796;53.136;14.882;2023-02-01T03:52:19;9.90;;;1.00;;
75209;SDS011;63796;53.136;14.882;2023-02-01T03:54:49;10.00;;;1.50;;
75209;SDS011;63796;53.136;14.882;2023-02-01T03:57:23;6.20;;;1.00;;
75209;SDS011;63796;53.136;14.882;2023-02-01T03:59:51;8.50;;;1.80;;
75209;SDS011;63796;53.136;14.882;2023-02-01T04:02:18;5.20;;;1.50;;
75209;SDS011;63796;53.136;14.882;2023-02-01T04:04:46;7.20;;;2.70;;
75209;SDS011;63796;53.136;14.882;2023-02-01T04:07:13;6.80;;;2.70;;
75209;SDS011;63796;53.136;14.882;2023-02-01T04:09:40;10.60;;;1.40;;
75209;SDS011;63796;53.136;14.882;2023-02-01T04:12:07;9.60;;;1.30;;
75209;SDS011;63796;53.136;14.882;2023-02-01T04:14:34;13.90;;;1.50;;
75209;SDS011;63796;53.136;14.882;2023-02-01T04:17:02;9.60;;;1.10;;
75209;SDS011;63796;53.136;14.882;2023-02-01T04:19:29;6.50;;;1.40;;
75209;SDS011;63796;53.136;14.882;2023-02-01T04:21:56;7.00;;;1.10;;
75209;SDS011;63796;53.136;14.882;2023-02-01T04:24:23;7.70;;;0.90;;
75209;SDS011;63796;53.136;14.882;2023-02-01T04:26:50;11.30;;;1.20;;
75209;SDS011;63796;53.136;14.882;2023-02-01T04:29:18;6.60;;;0.90;;
75209;SDS011;63796;53.136;14.882;2023-02-01T04:31:45;11.30;;;1.50;;
75209;SDS011;63796;53.136;14.882;2023-02-01T04:34:13;9.60;;;1.80;;
75209;SDS011;63796;53.136;14.882;2023-02-01T04:36:40;8.90;;;1.40;;
75209;SDS011;63796;53.136;14.882;2023-02-01T04:39:09;23.80;;;6.90;;
75209;SDS011;63796;53.136;14.882;2023-02-01T04:41:36;19.10;;;5.70;;
75209;SDS011;63796;53.136;14.882;2023-02-01T04:44:03;25.20;;;6.60;;
75209;SDS011;63796;53.136;14.882;2023-02-01T04:46:31;17.00;;;5.40;;
75209;SDS011;63796;53.136;14.882;2023-02-01T04:48:58;13.80;;;3.60;;
75209;SDS011;63796;53.136;14.882;2023-02-01T04:51:25;17.60;;;5.00;;
75209;SDS011;63796;53.136;14.882;2023-02-01T04:53:53;14.10;;;3.80;;
75209;SDS011;63796;53.136;14.882;2023-02-01T04:56:22;20.90;;;4.20;;
75209;SDS011;63796;53.136;14.882;2023-02-01T04:58:50;14.70;;;4.80;;
75209;SDS011;63796;53.136;14.882;2023-02-01T05:01:17;18.10;;;6.00;;
75209;SDS011;63796;53.136;14.882;2023-02-01T05:03:44;21.40;;;5.30;;
75209;SDS011;63796;53.136;14.882;2023-02-01T05:06:11;21.90;;;5.10;;
75209;SDS011;63796;53.136;14.882;2023-02-01T05:08:38;14.80;;;3.90;;
75209;SDS011;63796;53.136;14.882;2023-02-01T05:11:06;19.30;;;3.00;;
75209;SDS011;63796;53.136;14.882;2023-02-01T05:13:33;17.60;;;2.80;;
75209;SDS011;63796;53.136;14.882;2023-02-01T05:16:16;31.80;;;8.80;;
75209;SDS011;63796;53.136;14.882;2023-02-01T05:18:43;48.80;;;13.50;;
75209;SDS011;63796;53.136;14.882;2023-02-01T05:21:11;33.60;;;9.00;;
75209;SDS011;63796;53.136;14.882;2023-02-01T05:23:38;66.80;;;18.30;;
75209;SDS011;63796;53.136;14.882;2023-02-01T05:26:25;27.90;;;5.50;;
75209;SDS011;63796;53.136;14.882;2023-02-01T05:28:53;39.90;;;9.10;;
75209;SDS011;63796;53.136;14.882;2023-02-01T05:31:20;27.20;;;6.60;;
75209;SDS011;63796;53.136;14.882;2023-02-01T05:33:48;38.50;;;8.60;;
75209;SDS011;63796;53.136;14.882;2023-02-01T05:36:15;23.50;;;4.40;;
75209;SDS011;63796;53.136;14.882;2023-02-01T05:38:42;30.50;;;6.90;;
75209;SDS011;63796;53.136;14.882;2023-02-01T05:41:10;26.60;;;7.00;;
75209;SDS011;63796;53.136;14.882;2023-02-01T05:43:37;21.80;;;5.00;;
75209;SDS011;63796;53.136;14.882;2023-02-01T05:46:04;15.90;;;3.30;;
75209;SDS011;63796;53.136;14.882;2023-02-01T05:48:32;40.30;;;10.30;;
75209;SDS011;63796;53.136;14.882;2023-02-01T05:50:59;22.90;;;6.90;;
75209;SDS011;63796;53.136;14.882;2023-02-01T05:53:26;28.30;;;8.60;;
75209;SDS011;63796;53.136;14.882;2023-02-01T05:55:53;30.00;;;5.90;;
75209;SDS011;63796;53.136;14.882;2023-02-01T05:58:21;21.50;;;3.10;;
75209;SDS011;63796;53.136;14.882;2023-02-01T06:00:48;17.70;;;3.60;;
75209;SDS011;63796;53.136;14.882;2023-02-01T06:03:15;22.30;;;4.70;;
75209;SDS011;63796;53.136;14.882;2023-02-01T06:05:47;32.60;;;9.50;;
75209;SDS011;63796;53.136;14.882;2023-02-01T06:08:14;20.70;;;4.60;;
75209;SDS011;63796;53.136;14.882;2023-02-01T06:10:41;22.60;;;6.20;;
75209;SDS011;63796;53.136;14.882;2023-02-01T06:13:09;22.50;;;4.50;;
75209;SDS011;63796;53.136;14.882;2023-02-01T06:15:36;20.50;;;3.80;;
75209;SDS011;63796;53.136;14.882;2023-02-01T06:18:04;20.00;;;8.70;;
75209;SDS011;63796;53.136;14.882;2023-02-01T06:20:32;25.10;;;5.30;;
75209;SDS011;63796;53.136;14.882;2023-02-01T06:22:59;21.00;;;5.30;;
75209;SDS011;63796;53.136;14.882;2023-02-01T06:25:26;29.60;;;6.90;;
75209;SDS011;63796;53.136;14.882;2023-02-01T06:27:53;24.90;;;6.10;;
75209;SDS011;63796;53.136;14.882;2023-02-01T06:30:21;23.00;;;4.50;;
75209;SDS011;63796;53.136;14.882;2023-02-01T06:32:50;19.70;;;4.30;;
75209;SDS011;63796;53.136;14.882;2023-02-01T06:35:21;28.40;;;7.00;;
75209;SDS011;63796;53.136;14.882;2023-02-01T06:37:48;27.80;;;6.90;;
75209;SDS011;63796;53.136;14.882;2023-02-01T06:40:16;26.90;;;8.00;;
75209;SDS011;63796;53.136;14.882;2023-02-01T06:42:43;21.30;;;5.00;;
75209;SDS011;63796;53.136;14.882;2023-02-01T06:45:10;19.90;;;4.90;;
75209;SDS011;63796;53.136;14.882;2023-02-01T06:47:37;21.50;;;4.90;;
75209;SDS011;63796;53.136;14.882;2023-02-01T06:50:06;24.70;;;5.50;;
75209;SDS011;63796;53.136;14.882;2023-02-01T06:52:35;21.80;;;4.10;;
75209;SDS011;63796;53.136;14.882;2023-02-01T06:55:03;26.70;;;5.10;;
75209;SDS011;63796;53.136;14.882;2023-02-01T06:57:30;20.00;;;4.20;;
75209;SDS011;63796;53.136;14.882;2023-02-01T06:59:59;20.20;;;5.00;;
75209;SDS011;63796;53.136;14.882;2023-02-01T07:02:27;31.20;;;7.30;;
75209;SDS011;63796;53.136;14.882;2023-02-01T07:04:55;38.80;;;10.30;;
75209;SDS011;63796;53.136;14.882;2023-02-01T07:07:22;16.50;;;3.20;;
75209;SDS011;63796;53.136;14.882;2023-02-01T07:09:49;27.00;;;3.80;;
75209;SDS011;63796;53.136;14.882;2023-02-01T07:12:16;14.30;;;3.80;;
75209;SDS011;63796;53.136;14.882;2023-02-01T07:14:45;22.90;;;3.00;;
75209;SDS011;63796;53.136;14.882;2023-02-01T07:17:12;20.80;;;3.80;;
75209;SDS011;63796;53.136;14.882;2023-02-01T07:19:40;17.50;;;3.70;;
75209;SDS011;63796;53.136;14.882;2023-02-01T07:22:07;20.80;;;4.30;;
75209;SDS011;63796;53.136;14.882;2023-02-01T07:24:34;17.20;;;3.70;;
75209;SDS011;63796;53.136;14.882;2023-02-01T07:27:01;18.00;;;4.00;;
75209;SDS011;63796;53.136;14.882;2023-02-01T07:29:29;25.90;;;6.20;;
75209;SDS011;63796;53.136;14.882;2023-02-01T07:31:56;25.50;;;8.10;;
75209;SDS011;63796;53.136;14.882;2023-02-01T07:34:23;14.10;;;2.40;;
75209;SDS011;63796;53.136;14.882;2023-02-01T07:36:50;17.80;;;3.20;;
75209;SDS011;63796;53.136;14.882;2023-02-01T07:39:18;13.90;;;2.50;;
75209;SDS011;63796;53.136;14.882;2023-02-01T07:41:46;16.40;;;2.90;;
75209;SDS011;63796;53.136;14.882;2023-02-01T07:44:13;18.40;;;3.00;;
75209;SDS011;63796;53.136;14.882;2023-02-01T07:46:40;17.00;;;3.90;;
75209;SDS011;63796;53.136;14.882;2023-02-01T07:49:08;19.40;;;4.40;;
75209;SDS011;63796;53.136;14.882;2023-02-01T07:51:35;13.50;;;3.60;;
75209;SDS011;63796;53.136;14.882;2023-02-01T07:54:03;22.70;;;4.30;;
75209;SDS011;63796;53.136;14.882;2023-02-01T07:56:31;27.50;;;6.30;;
75209;SDS011;63796;53.136;14.882;2023-02-01T07:58:58;21.30;;;4.60;;
75209;SDS011;63796;53.136;14.882;2023-02-01T08:01:28;16.70;;;3.70;;
75209;SDS011;63796;53.136;14.882;2023-02-01T08:03:58;15.60;;;3.60;;
75209;SDS011;63796;53.136;14.882;2023-02-01T08:06:28;15.00;;;2.60;;
75209;SDS011;63796;53.136;14.882;2023-02-01T08:08:55;12.90;;;2.60;;
75209;SDS011;63796;53.136;14.882;2023-02-01T08:11:24;15.10;;;2.60;;
75209;SDS011;63796;53.136;14.882;2023-02-01T08:13:52;10.60;;;3.10;;
75209;SDS011;63796;53.136;14.882;2023-02-01T08:16:20;11.90;;;3.10;;
75209;SDS011;63796;53.136;14.882;2023-02-01T08:18:48;16.10;;;2.40;;
75209;SDS011;63796;53.136;14.882;2023-02-01T08:21:19;9.30;;;2.70;;
75209;SDS011;63796;53.136;14.882;2023-02-01T08:23:47;14.50;;;2.90;;
75209;SDS011;63796;53.136;14.882;2023-02-01T08:26:18;10.70;;;2.00;;
75209;SDS011;63796;53.136;14.882;2023-02-01T08:28:57;14.30;;;2.10;;
75209;SDS011;63796;53.136;14.882;2023-02-01T08:31:26;9.30;;;1.60;;
75209;SDS011;63796;53.136;14.882;2023-02-01T08:33:59;14.30;;;2.90;;
75209;SDS011;63796;53.136;14.882;2023-02-01T08:36:28;19.00;;;5.50;;
75209;SDS011;63796;53.136;14.882;2023-02-01T08:38:56;30.20;;;9.00;;
75209;SDS011;63796;53.136;14.882;2023-02-01T08:41:26;46.90;;;10.00;;
75209;SDS011;63796;53.136;14.882;2023-02-01T08:43:53;21.60;;;7.00;;
75209;SDS011;63796;53.136;14.882;2023-02-01T08:46:22;41.80;;;12.40;;
75209;SDS011;63796;53.136;14.882;2023-02-01T08:48:50;24.80;;;7.70;;
75209;SDS011;63796;53.136;14.882;2023-02-01T08:51:21;37.40;;;11.60;;
75209;SDS011;63796;53.136;14.882;2023-02-01T08:53:49;27.30;;;9.30;;
75209;SDS011;63796;53.136;14.882;2023-02-01T08:56:17;26.10;;;7.60;;
75209;SDS011;63796;53.136;14.882;2023-02-01T08:58:45;39.50;;;14.60;;
75209;SDS011;63796;53.136;14.882;2023-02-01T09:01:14;55.80;;;18.60;;
75209;SDS011;63796;53.136;14.882;2023-02-01T09:03:42;25.90;;;8.50;;
75209;SDS011;63796;53.136;14.882;2023-02-01T09:06:12;25.30;;;8.40;;
75209;SDS011;63796;53.136;14.882;2023-02-01T09:08:40;47.00;;;16.90;;
75209;SDS011;63796;53.136;14.882;2023-02-01T09:11:11;46.80;;;14.70;;
75209;SDS011;63796;53.136;14.882;2023-02-01T09:13:39;25.60;;;8.80;;
75209;SDS011;63796;53.136;14.882;2023-02-01T09:16:06;21.60;;;8.60;;
75209;SDS011;63796;53.136;14.882;2023-02-01T09:18:34;12.60;;;4.40;;
75209;SDS011;63796;53.136;14.882;2023-02-01T09:21:08;21.60;;;7.40;;
75209;SDS011;63796;53.136;14.882;2023-02-01T09:23:35;21.00;;;8.00;;
75209;SDS011;63796;53.136;14.882;2023-02-01T09:26:05;51.20;;;16.00;;
75209;SDS011;63796;53.136;14.882;2023-02-01T09:28:32;48.30;;;15.90;;
75209;SDS011;63796;53.136;14.882;2023-02-01T09:31:00;30.30;;;8.80;;
75209;SDS011;63796;53.136;14.882;2023-02-01T09:33:28;69.00;;;16.60;;
75209;SDS011;63796;53.136;14.882;2023-02-01T09:36:01;64.40;;;17.80;;
75209;SDS011;63796;53.136;14.882;2023-02-01T09:38:29;59.50;;;14.00;;
75209;SDS011;63796;53.136;14.882;2023-02-01T09:40:59;55.10;;;13.70;;
75209;SDS011;63796;53.136;14.882;2023-02-01T09:46:26;29.30;;;9.20;;
75209;SDS011;63796;53.136;14.882;2023-02-01T09:48:57;20.40;;;8.30;;
75209;SDS011;63796;53.136;14.882;2023-02-01T09:51:43;20.10;;;7.70;;
75209;SDS011;63796;53.136;14.882;2023-02-01T09:54:21;15.60;;;6.40;;
75209;SDS011;63796;53.136;14.882;2023-02-01T09:56:59;11.80;;;4.70;;
75209;SDS011;63796;53.136;14.882;2023-02-01T09:59:41;7.00;;;2.70;;
75209;SDS011;63796;53.136;14.882;2023-02-01T10:02:25;14.40;;;5.70;;
75209;SDS011;63796;53.136;14.882;2023-02-01T10:04:59;13.80;;;5.20;;
75209;SDS011;63796;53.136;14.882;2023-02-01T10:10:39;19.20;;;8.90;;
75209;SDS011;63796;53.136;14.882;2023-02-01T10:13:23;12.10;;;4.70;;
75209;SDS011;63796;53.136;14.882;2023-02-01T10:16:20;11.00;;;5.40;;
75209;SDS011;63796;53.136;14.882;2023-02-01T10:19:10;11.40;;;4.40;;
75209;SDS011;63796;53.136;14.882;2023-02-01T10:22:05;5.20;;;3.10;;
75209;SDS011;63796;53.136;14.882;2023-02-01T10:24:46;10.20;;;3.40;;
75209;SDS011;63796;53.136;14.882;2023-02-01T10:27:19;9.10;;;4.10;;
75209;SDS011;63796;53.136;14.882;2023-02-01T10:29:59;4.60;;;2.00;;
75209;SDS011;63796;53.136;14.882;2023-02-01T10:32:30;4.30;;;1.40;;
75209;SDS011;63796;53.136;14.882;2023-02-01T10:35:00;6.60;;;1.90;;
75209;SDS011;63796;53.136;14.882;2023-02-01T10:37:30;5.90;;;2.10;;
75209;SDS011;63796;53.136;14.882;2023-02-01T10:40:03;9.60;;;3.50;;
75209;SDS011;63796;53.136;14.882;2023-02-01T10:42:32;14.70;;;4.70;;
75209;SDS011;63796;53.136;14.882;2023-02-01T10:45:02;17.00;;;4.80;;
75209;SDS011;63796;53.136;14.882;2023-02-01T10:47:30;10.70;;;4.30;;
75209;SDS011;63796;53.136;14.882;2023-02-01T10:50:18;11.40;;;4.80;;
75209;SDS011;63796;53.136;14.882;2023-02-01T10:52:57;9.50;;;2.40;;
75209;SDS011;63796;53.136;14.882;2023-02-01T10:55:33;7.40;;;1.40;;
75209;SDS011;63796;53.136;14.882;2023-02-01T10:58:03;5.50;;;1.50;;
75209;SDS011;63796;53.136;14.882;2023-02-01T11:00:41;6.60;;;1.00;;
75209;SDS011;63796;53.136;14.882;2023-02-01T11:05:58;8.10;;;1.00;;
75209;SDS011;63796;53.136;14.882;2023-02-01T11:08:25;5.70;;;1.70;;
75209;SDS011;63796;53.136;14.882;2023-02-01T11:11:00;9.00;;;1.80;;
75209;SDS011;63796;53.136;14.882;2023-02-01T11:13:31;4.80;;;1.10;;
75209;SDS011;63796;53.136;14.882;2023-02-01T11:16:03;4.40;;;1.00;;
75209;SDS011;63796;53.136;14.882;2023-02-01T11:18:35;6.20;;;1.80;;
75209;SDS011;63796;53.136;14.882;2023-02-01T11:21:05;7.20;;;1.00;;
75209;SDS011;63796;53.136;14.882;2023-02-01T11:23:33;5.80;;;0.80;;
75209;SDS011;63796;53.136;14.882;2023-02-01T11:26:09;6.80;;;1.20;;
75209;SDS011;63796;53.136;14.882;2023-02-01T11:28:40;11.40;;;1.10;;
75209;SDS011;63796;53.136;14.882;2023-02-01T11:31:10;3.10;;;0.90;;
75209;SDS011;63796;53.136;14.882;2023-02-01T11:33:49;11.50;;;3.00;;
75209;SDS011;63796;53.136;14.882;2023-02-01T11:36:20;11.50;;;3.00;;
75209;SDS011;63796;53.136;14.882;2023-02-01T11:41:23;6.30;;;2.20;;
75209;SDS011;63796;53.136;14.882;2023-02-01T11:45:07;4.40;;;1.20;;
75209;SDS011;63796;53.136;14.882;2023-02-01T11:50:00;8.10;;;1.90;;
75209;SDS011;63796;53.136;14.882;2023-02-01T11:55:10;10.30;;;0.80;;
75209;SDS011;63796;53.136;14.882;2023-02-01T11:58:03;8.60;;;1.10;;
75209;SDS011;63796;53.136;14.882;2023-02-01T12:00:51;9.20;;;1.70;;
75209;SDS011;63796;53.136;14.882;2023-02-01T12:06:45;13.30;;;2.40;;
75209;SDS011;63796;53.136;14.882;2023-02-01T12:09:18;8.90;;;1.10;;
75209;SDS011;63796;53.136;14.882;2023-02-01T12:18:11;15.70;;;6.30;;
75209;SDS011;63796;53.136;14.882;2023-02-01T12:21:03;11.70;;;3.30;;
75209;SDS011;63796;53.136;14.882;2023-02-01T12:43:12;20.40;;;8.10;;
75209;SDS011;63796;53.136;14.882;2023-02-01T12:45:41;47.20;;;15.90;;
75209;SDS011;63796;53.136;14.882;2023-02-01T12:50:57;53.10;;;22.30;;
75209;SDS011;63796;53.136;14.882;2023-02-01T12:53:45;31.40;;;12.80;;
75209;SDS011;63796;53.136;14.882;2023-02-01T12:56:24;41.00;;;16.00;;
75209;SDS011;63796;53.136;14.882;2023-02-01T12:58:56;24.80;;;7.10;;
75209;SDS011;63796;53.136;14.882;2023-02-01T13:01:45;15.10;;;4.10;;
75209;SDS011;63796;53.136;14.882;2023-02-01T13:04:29;20.70;;;8.90;;
75209;SDS011;63796;53.136;14.882;2023-02-01T13:07:18;40.50;;;13.50;;
75209;SDS011;63796;53.136;14.882;2023-02-01T13:09:57;31.10;;;11.70;;
75209;SDS011;63796;53.136;14.882;2023-02-01T13:12:37;29.00;;;11.40;;
75209;SDS011;63796;53.136;14.882;2023-02-01T13:15:16;22.40;;;10.90;;
75209;SDS011;63796;53.136;14.882;2023-02-01T13:17:46;55.30;;;18.70;;
75209;SDS011;63796;53.136;14.882;2023-02-01T13:23:08;25.70;;;11.60;;
75209;SDS011;63796;53.136;14.882;2023-02-01T13:25:46;39.60;;;13.70;;
75209;SDS011;63796;53.136;14.882;2023-02-01T13:28:22;61.00;;;21.40;;
75209;SDS011;63796;53.136;14.882;2023-02-01T13:33:52;34.70;;;12.80;;
75209;SDS011;63796;53.136;14.882;2023-02-01T13:42:01;26.30;;;10.80;;
75209;SDS011;63796;53.136;14.882;2023-02-01T13:49:53;32.80;;;14.10;;
75209;SDS011;63796;53.136;14.882;2023-02-01T13:52:43;36.20;;;15.40;;
75209;SDS011;63796;53.136;14.882;2023-02-01T13:55:24;23.20;;;8.60;;
75209;SDS011;63796;53.136;14.882;2023-02-01T13:58:01;37.60;;;16.10;;
75209;SDS011;63796;53.136;14.882;2023-02-01T14:10:49;29.10;;;9.50;;
75209;SDS011;63796;53.136;14.882;2023-02-01T14:13:36;23.70;;;10.40;;
75209;SDS011;63796;53.136;14.882;2023-02-01T14:21:32;25.50;;;7.30;;
75209;SDS011;63796;53.136;14.882;2023-02-01T14:44:46;11.00;;;3.10;;
75209;SDS011;63796;53.136;14.882;2023-02-01T14:47:26;17.80;;;7.00;;
75209;SDS011;63796;53.136;14.882;2023-02-01T14:53:23;25.60;;;6.90;;
75209;SDS011;63796;53.136;14.882;2023-02-01T15:01:02;29.00;;;6.60;;
75209;SDS011;63796;53.136;14.882;2023-02-01T15:08:48;49.40;;;13.60;;
75209;SDS011;63796;53.136;14.882;2023-02-01T15:11:16;113.20;;;32.90;;
75209;SDS011;63796;53.136;14.882;2023-02-01T15:13:51;111.30;;;26.90;;
75209;SDS011;63796;53.136;14.882;2023-02-01T15:16:25;56.80;;;15.30;;
75209;SDS011;63796;53.136;14.882;2023-02-01T15:19:10;78.40;;;23.20;;
75209;SDS011;63796;53.136;14.882;2023-02-01T15:21:47;123.90;;;35.40;;
75209;SDS011;63796;53.136;14.882;2023-02-01T15:26:54;69.70;;;23.10;;
75209;SDS011;63796;53.136;14.882;2023-02-01T15:29:23;97.20;;;34.00;;
75209;SDS011;63796;53.136;14.882;2023-02-01T15:31:54;81.30;;;26.80;;
75209;SDS011;63796;53.136;14.882;2023-02-01T15:34:21;86.40;;;27.70;;
75209;SDS011;63796;53.136;14.882;2023-02-01T15:36:49;69.30;;;23.00;;
75209;SDS011;63796;53.136;14.882;2023-02-01T15:39:29;52.80;;;17.50;;
75209;SDS011;63796;53.136;14.882;2023-02-01T15:42:08;48.90;;;16.00;;
75209;SDS011;63796;53.136;14.882;2023-02-01T15:44:42;88.00;;;30.80;;
75209;SDS011;63796;53.136;14.882;2023-02-01T15:47:18;42.30;;;13.50;;
75209;SDS011;63796;53.136;14.882;2023-02-01T15:49:51;47.50;;;18.10;;
75209;SDS011;63796;53.136;14.882;2023-02-01T15:54:58;36.40;;;15.10;;
75209;SDS011;63796;53.136;14.882;2023-02-01T15:57:35;51.90;;;21.60;;
75209;SDS011;63796;53.136;14.882;2023-02-01T16:00:18;43.80;;;14.80;;
75209;SDS011;63796;53.136;14.882;2023-02-01T16:03:25;58.30;;;24.20;;
75209;SDS011;63796;53.136;14.882;2023-02-01T16:05:57;42.60;;;13.10;;
75209;SDS011;63796;53.136;14.882;2023-02-01T16:08:27;60.40;;;22.60;;
75209;SDS011;63796;53.136;14.882;2023-02-01T16:13:35;62.70;;;21.50;;
75209;SDS011;63796;53.136;14.882;2023-02-01T16:16:03;49.50;;;16.80;;
75209;SDS011;63796;53.136;14.882;2023-02-01T16:18:35;43.10;;;15.20;;
75209;SDS011;63796;53.136;14.882;2023-02-01T16:21:02;35.40;;;15.50;;
75209;SDS011;63796;53.136;14.882;2023-02-01T16:23:29;27.50;;;11.90;;
75209;SDS011;63796;53.136;14.882;2023-02-01T16:25:58;22.60;;;7.50;;
75209;SDS011;63796;53.136;14.882;2023-02-01T16:28:25;22.10;;;10.20;;
75209;SDS011;63796;53.136;14.882;2023-02-01T16:30:53;19.00;;;8.90;;
75209;SDS011;63796;53.136;14.882;2023-02-01T16:33:22;14.30;;;6.80;;
75209;SDS011;63796;53.136;14.882;2023-02-01T16:35:50;25.00;;;12.80;;
75209;SDS011;63796;53.136;14.882;2023-02-01T16:38:19;11.40;;;5.10;;
75209;SDS011;63796;53.136;14.882;2023-02-01T16:40:49;29.50;;;11.90;;
75209;SDS011;63796;53.136;14.882;2023-02-01T16:43:17;25.10;;;10.10;;
75209;SDS011;63796;53.136;14.882;2023-02-01T16:45:46;12.10;;;4.80;;
75209;SDS011;63796;53.136;14.882;2023-02-01T16:48:26;16.60;;;5.70;;
75209;SDS011;63796;53.136;14.882;2023-02-01T16:50:56;27.40;;;12.50;;
75209;SDS011;63796;53.136;14.882;2023-02-01T16:53:25;14.70;;;5.70;;
75209;SDS011;63796;53.136;14.882;2023-02-01T16:55:54;26.30;;;9.20;;
75209;SDS011;63796;53.136;14.882;2023-02-01T16:58:25;16.30;;;6.30;;
75209;SDS011;63796;53.136;14.882;2023-02-01T17:00:53;20.30;;;8.20;;
75209;SDS011;63796;53.136;14.882;2023-02-01T17:03:21;16.60;;;7.20;;
75209;SDS011;63796;53.136;14.882;2023-02-01T17:05:55;18.00;;;7.10;;
75209;SDS011;63796;53.136;14.882;2023-02-01T17:08:47;23.60;;;9.40;;
75209;SDS011;63796;53.136;14.882;2023-02-01T17:11:17;20.00;;;6.70;;
75209;SDS011;63796;53.136;14.882;2023-02-01T17:13:44;35.50;;;12.70;;
75209;SDS011;63796;53.136;14.882;2023-02-01T17:18:54;19.60;;;6.90;;
75209;SDS011;63796;53.136;14.882;2023-02-01T17:21:22;12.90;;;3.60;;
75209;SDS011;63796;53.136;14.882;2023-02-01T17:23:50;9.30;;;3.00;;